createdAt,value
2023-01-09T00:01:25.388Z,2.28
2023-01-09T00:03:52.852Z,1.90
2023-01-09T00:06:20.308Z,1.90
2023-01-09T00:08:47.667Z,1.77
2023-01-09T00:11:15.121Z,1.90
2023-01-09T00:13:42.619Z,1.90
2023-01-09T00:16:12.296Z,1.80
2023-01-09T00:18:39.891Z,2.15
2023-01-09T00:21:09.280Z,1.75
2023-01-09T00:23:37.302Z,2.15
2023-01-09T00:26:07.577Z,1.70
2023-01-09T00:28:35.864Z,2.10
2023-01-09T00:31:04.473Z,2.17
2023-01-09T00:33:38.885Z,2.08
2023-01-09T00:36:06.598Z,2.13
2023-01-09T00:38:33.951Z,2.30
2023-01-09T00:41:03.346Z,2.10
2023-01-09T00:43:37.175Z,2.03
2023-01-09T00:46:06.029Z,2.45
2023-01-09T00:48:34.764Z,2.28
2023-01-09T00:51:02.307Z,2.65
2023-01-09T00:53:32.599Z,2.53
2023-01-09T00:56:01.664Z,2.80
2023-01-09T00:58:29.231Z,2.78
2023-01-09T01:00:56.635Z,2.47
2023-01-09T01:03:23.946Z,2.78
2023-01-09T01:06:09.978Z,3.00
2023-01-09T01:08:37.283Z,3.05
2023-01-09T01:11:10.235Z,3.70
2023-01-09T01:16:06.446Z,3.58
2023-01-09T01:18:33.777Z,3.63
2023-01-09T01:21:01.131Z,3.42
2023-01-09T01:23:28.554Z,3.75
2023-01-09T01:25:56.031Z,4.28
2023-01-09T01:28:23.348Z,3.75
2023-01-09T01:30:50.795Z,4.10
2023-01-09T01:33:18.143Z,3.97
2023-01-09T01:35:45.666Z,4.47
2023-01-09T01:38:12.965Z,4.00
2023-01-09T01:40:40.760Z,3.85
2023-01-09T01:43:12.196Z,4.38
2023-01-09T01:45:40.600Z,4.30
2023-01-09T01:48:11.108Z,4.60
2023-01-09T01:50:47.253Z,4.97
2023-01-09T01:53:25.040Z,4.35
2023-01-09T01:56:15.894Z,5.07
2023-01-09T01:58:48.113Z,4.45
2023-01-09T02:01:16.082Z,4.78
2023-01-09T02:03:44.156Z,5.25
2023-01-09T02:06:13.239Z,5.22
2023-01-09T02:08:40.639Z,5.13
2023-01-09T02:11:08.123Z,5.60
2023-01-09T02:13:38.704Z,5.20
2023-01-09T02:16:22.076Z,5.00
2023-01-09T02:19:11.948Z,5.25
2023-01-09T02:21:39.174Z,4.95
2023-01-09T02:24:06.443Z,5.15
2023-01-09T02:27:03.638Z,4.35
2023-01-09T02:30:00.350Z,3.95
2023-01-09T02:32:39.652Z,3.80
2023-01-09T02:35:42.295Z,4.15
2023-01-09T02:38:59.820Z,3.97
2023-01-09T02:41:40.284Z,4.38
2023-01-09T02:44:24.123Z,4.00
2023-01-09T02:47:08.310Z,4.13
2023-01-09T02:49:40.560Z,4.32
2023-01-09T02:52:37.234Z,4.07
2023-01-09T02:55:34.451Z,4.05
2023-01-09T02:58:10.093Z,4.97
2023-01-09T03:00:49.517Z,4.65
2023-01-09T03:03:38.869Z,5.03
2023-01-09T03:06:29.491Z,4.95
2023-01-09T03:09:09.340Z,4.53
2023-01-09T03:11:40.919Z,4.95
2023-01-09T03:14:14.001Z,4.88
2023-01-09T03:16:45.022Z,4.82
2023-01-09T03:19:16.283Z,5.53
2023-01-09T03:21:44.985Z,5.15
2023-01-09T03:24:12.347Z,5.18
2023-01-09T03:26:39.743Z,4.53
2023-01-09T03:29:07.273Z,4.85
2023-01-09T03:31:34.790Z,4.70
2023-01-09T03:34:02.098Z,5.50
2023-01-09T03:36:29.430Z,4.60
2023-01-09T03:38:56.779Z,4.57
2023-01-09T03:41:24.069Z,4.82
2023-01-09T03:43:51.421Z,4.70
2023-01-09T03:46:18.731Z,4.18
2023-01-09T03:48:46.071Z,4.63
2023-01-09T03:51:13.401Z,4.38
2023-01-09T03:53:41.212Z,4.72
2023-01-09T03:56:08.781Z,4.45
2023-01-09T03:58:36.072Z,4.30
2023-01-09T04:01:05.746Z,3.42
2023-01-09T04:03:33.231Z,3.97
2023-01-09T04:06:00.525Z,3.65
2023-01-09T04:08:28.268Z,4.10
2023-01-09T04:10:55.747Z,4.03
2023-01-09T04:13:23.439Z,4.13
2023-01-09T04:15:51.083Z,3.85
2023-01-09T04:18:18.354Z,3.85
2023-01-09T04:20:48.487Z,4.03
2023-01-09T04:23:16.127Z,3.10
2023-01-09T04:25:43.529Z,3.50
2023-01-09T04:28:11.083Z,3.50
2023-01-09T04:30:38.431Z,3.55
2023-01-09T04:33:05.707Z,3.28
2023-01-09T04:35:33.079Z,3.00
2023-01-09T04:38:01.003Z,2.72
2023-01-09T04:40:28.999Z,2.90
2023-01-09T04:42:56.500Z,2.85
2023-01-09T04:45:23.848Z,2.88
2023-01-09T04:47:51.293Z,3.00
2023-01-09T04:50:18.692Z,3.03
2023-01-09T04:52:46.082Z,2.80
2023-01-09T04:55:13.396Z,3.53
2023-01-09T04:57:40.691Z,2.80
2023-01-09T05:00:10.024Z,3.13
2023-01-09T05:02:37.865Z,2.45
2023-01-09T05:05:08.554Z,2.60
2023-01-09T05:07:38.709Z,3.05
2023-01-09T05:10:06.772Z,3.28
2023-01-09T05:12:36.348Z,2.75
2023-01-09T05:15:05.023Z,2.55
2023-01-09T05:17:32.387Z,2.60
2023-01-09T05:20:01.085Z,2.97
2023-01-09T05:22:28.726Z,2.83
2023-01-09T05:24:56.592Z,2.88
2023-01-09T05:27:24.334Z,2.88
2023-01-09T05:29:51.758Z,3.20
2023-01-09T05:32:19.117Z,2.90
2023-01-09T05:34:46.419Z,2.97
2023-01-09T05:37:13.783Z,2.85
2023-01-09T05:39:41.239Z,2.92
2023-01-09T05:42:08.664Z,3.25
2023-01-09T05:44:36.013Z,3.15
2023-01-09T05:47:03.494Z,3.47
2023-01-09T05:49:30.823Z,3.80
2023-01-09T05:51:58.205Z,3.65
2023-01-09T05:54:25.524Z,3.35
2023-01-09T05:56:52.795Z,3.17
2023-01-09T05:59:20.654Z,3.13
2023-01-09T06:01:48.033Z,3.15
2023-01-09T06:04:16.083Z,3.40
2023-01-09T06:06:43.438Z,3.25
2023-01-09T06:09:10.978Z,4.38
2023-01-09T06:11:38.647Z,4.07
2023-01-09T06:14:07.054Z,3.88
2023-01-09T06:16:34.844Z,3.65
2023-01-09T06:19:02.285Z,3.13
2023-01-09T06:21:30.376Z,3.70
2023-01-09T06:23:59.169Z,3.35
2023-01-09T06:26:28.824Z,3.72
2023-01-09T06:28:56.845Z,3.60
2023-01-09T06:31:25.292Z,3.80
2023-01-09T06:33:52.950Z,4.05
2023-01-09T06:39:11.447Z,4.70
2023-01-09T06:41:41.965Z,4.88
2023-01-09T06:44:09.704Z,4.80
2023-01-09T06:46:37.184Z,4.35
2023-01-09T06:49:06.051Z,4.82
2023-01-09T06:51:34.094Z,5.53
2023-01-09T06:54:05.634Z,5.38
2023-01-09T06:56:36.067Z,4.60
2023-01-09T06:59:06.756Z,4.68
2023-01-09T07:01:37.027Z,4.30
2023-01-09T07:04:05.722Z,4.03
2023-01-09T07:06:33.749Z,3.50
2023-01-09T07:09:02.474Z,3.65
2023-01-09T07:11:34.213Z,2.22
2023-01-09T07:14:01.655Z,2.00
2023-01-09T07:16:32.499Z,1.85
2023-01-09T07:19:02.283Z,2.00
2023-01-09T07:21:32.788Z,2.00
2023-01-09T07:24:00.550Z,2.10
2023-01-09T07:26:29.479Z,2.13
2023-01-09T07:28:58.161Z,2.28
2023-01-09T07:31:26.547Z,2.50
2023-01-09T07:33:58.564Z,2.22
2023-01-09T07:36:32.442Z,2.60
2023-01-09T07:39:03.319Z,2.22
2023-01-09T07:41:31.184Z,2.13
2023-01-09T07:43:58.697Z,2.10
2023-01-09T07:46:33.819Z,2.83
2023-01-09T07:51:45.291Z,2.30
2023-01-09T07:54:13.570Z,2.40
2023-01-09T07:56:41.692Z,2.67
2023-01-09T07:59:09.224Z,2.30
2023-01-09T08:01:36.680Z,2.70
2023-01-09T08:04:04.308Z,2.13
2023-01-09T08:06:32.120Z,2.45
2023-01-09T08:08:59.894Z,2.00
2023-01-09T08:11:32.301Z,2.60
2023-01-09T08:13:59.610Z,2.20
2023-01-09T08:16:29.663Z,3.05
2023-01-09T08:18:58.135Z,2.28
2023-01-09T08:21:25.681Z,2.05
2023-01-09T08:23:53.032Z,2.17
2023-01-09T08:26:20.412Z,2.20
2023-01-09T08:28:48.466Z,2.20
2023-01-09T08:31:16.814Z,2.75
2023-01-09T08:33:44.597Z,2.70
2023-01-09T08:36:12.043Z,2.33
2023-01-09T08:38:39.571Z,2.40
2023-01-09T08:41:25.497Z,2.60
2023-01-09T08:44:11.378Z,2.70
2023-01-09T08:46:57.154Z,2.83
2023-01-09T08:49:24.470Z,3.33
2023-01-09T08:51:51.785Z,3.05
2023-01-09T08:54:19.248Z,3.20
2023-01-09T08:56:46.513Z,3.38
2023-01-09T08:59:14.121Z,3.33
2023-01-09T09:01:41.422Z,3.78
2023-01-09T09:04:08.730Z,3.40
2023-01-09T09:06:36.196Z,3.50
2023-01-09T09:09:03.883Z,2.85
2023-01-09T09:11:34.365Z,3.03
2023-01-09T09:14:25.703Z,2.45
2023-01-09T09:16:53.357Z,2.30
2023-01-09T09:19:20.849Z,2.03
2023-01-09T09:21:48.333Z,2.28
2023-01-09T09:24:15.614Z,1.92
2023-01-09T09:26:44.608Z,1.90
2023-01-09T09:29:12.272Z,1.95
2023-01-09T09:31:39.826Z,1.95
2023-01-09T09:34:08.238Z,2.00
2023-01-09T09:36:37.311Z,1.67
2023-01-09T09:39:07.216Z,2.35
2023-01-09T09:42:31.354Z,2.70
2023-01-09T09:48:07.851Z,2.30
2023-01-09T09:50:59.279Z,2.15
2023-01-09T09:53:40.406Z,2.33
2023-01-09T09:56:11.958Z,2.70
2023-01-09T09:59:01.939Z,2.45
2023-01-09T10:02:02.052Z,2.63
2023-01-09T10:04:32.419Z,3.15
2023-01-09T10:07:06.249Z,2.97
2023-01-09T10:09:41.488Z,2.90
2023-01-09T10:12:11.610Z,3.42
2023-01-09T10:14:39.751Z,3.30
2023-01-09T10:17:19.592Z,2.20
2023-01-09T10:20:13.029Z,2.35
2023-01-09T10:25:36.945Z,2.60
2023-01-09T10:28:46.847Z,2.72
2023-01-09T10:31:23.223Z,2.58
2023-01-09T10:33:53.664Z,3.00
2023-01-09T10:36:39.004Z,4.32
2023-01-09T10:39:10.877Z,3.00
2023-01-09T10:41:58.493Z,3.10
2023-01-09T10:44:37.385Z,3.92
2023-01-09T10:47:22.703Z,3.55
2023-01-09T10:49:50.659Z,3.42
2023-01-09T10:52:20.717Z,3.15
2023-01-09T10:55:19.329Z,3.45
2023-01-09T10:58:00.123Z,3.20
2023-01-09T11:00:27.561Z,3.15
2023-01-09T11:02:55.600Z,3.10
2023-01-09T11:05:28.438Z,3.30
2023-01-09T11:08:05.430Z,3.75
2023-01-09T11:10:47.063Z,3.33
2023-01-09T11:13:35.117Z,4.18
2023-01-09T11:16:04.405Z,3.17
2023-01-09T11:18:32.585Z,3.78
2023-01-09T11:21:32.787Z,3.40
2023-01-09T11:24:18.972Z,4.07
2023-01-09T11:26:47.876Z,3.53
2023-01-09T11:29:17.656Z,3.60
2023-01-09T11:31:55.610Z,3.78
2023-01-09T11:34:25.985Z,3.80
2023-01-09T11:36:54.214Z,3.63
2023-01-09T11:39:26.746Z,3.80
2023-01-09T11:41:55.858Z,3.40
2023-01-09T11:44:23.332Z,2.83
2023-01-09T11:46:50.693Z,3.45
2023-01-09T11:49:18.153Z,3.47
2023-01-09T11:51:45.595Z,3.13
2023-01-09T11:54:21.203Z,3.17
2023-01-09T11:56:48.945Z,3.22
2023-01-09T11:59:19.031Z,3.28
2023-01-09T12:02:34.023Z,3.92
2023-01-09T12:05:35.327Z,3.38
2023-01-09T12:08:19.785Z,4.82
2023-01-09T12:11:02.168Z,3.85
2023-01-09T12:14:07.264Z,4.03
2023-01-09T12:16:38.481Z,3.83
2023-01-09T12:19:50.184Z,3.70
2023-01-09T12:22:38.649Z,3.17
2023-01-09T12:25:41.217Z,3.60
2023-01-09T12:28:29.387Z,3.22
2023-01-09T12:31:04.074Z,3.05
2023-01-09T12:34:01.817Z,3.05
2023-01-09T12:36:35.208Z,3.13
2023-01-09T12:39:21.578Z,3.15
2023-01-09T12:41:58.114Z,2.78
2023-01-09T12:44:43.877Z,3.35
2023-01-09T12:47:20.222Z,2.83
2023-01-09T12:50:17.657Z,3.00
2023-01-09T12:52:55.876Z,3.63
2023-01-09T12:55:24.511Z,3.42
2023-01-09T12:57:54.310Z,3.30
2023-01-09T13:00:40.786Z,3.20
2023-01-09T13:03:27.354Z,3.58
2023-01-09T13:05:57.454Z,3.05
2023-01-09T13:08:47.645Z,3.15
2023-01-09T13:11:20.309Z,3.20
2023-01-09T13:13:50.736Z,2.70
2023-01-09T13:16:45.087Z,2.70
2023-01-09T13:19:20.881Z,3.17
2023-01-09T13:21:48.735Z,2.85
2023-01-09T13:24:34.489Z,2.50
2023-01-09T13:27:14.552Z,2.90
2023-01-09T13:29:45.677Z,3.50
2023-01-09T13:32:12.969Z,3.38
2023-01-09T13:34:47.555Z,3.25
2023-01-09T13:37:24.910Z,3.00
2023-01-09T13:40:01.255Z,3.72
2023-01-09T13:42:46.407Z,3.53
2023-01-09T13:45:24.698Z,3.17
2023-01-09T13:48:11.966Z,3.78
2023-01-09T13:50:41.511Z,3.20
2023-01-09T13:53:27.713Z,3.72
2023-01-09T13:58:39.934Z,3.38
2023-01-09T14:01:27.220Z,3.60
2023-01-09T14:04:21.485Z,3.38
2023-01-09T14:07:20.231Z,3.30
2023-01-09T14:09:54.722Z,3.13
2023-01-09T14:12:24.325Z,2.90
2023-01-09T14:14:53.934Z,3.17
2023-01-09T14:17:50.585Z,3.60
2023-01-09T14:20:48.311Z,3.45
2023-01-09T14:23:50.176Z,3.78
2023-01-09T14:26:26.730Z,3.78
2023-01-09T14:29:29.619Z,3.58
2023-01-09T14:32:22.203Z,3.47
2023-01-09T14:35:13.508Z,3.80
2023-01-09T14:37:41.389Z,3.70
2023-01-09T14:40:22.379Z,3.47
2023-01-09T14:42:54.020Z,3.72
2023-01-09T14:45:24.367Z,3.38
2023-01-09T14:47:54.467Z,4.45
2023-01-09T14:50:38.258Z,3.40
2023-01-09T14:53:12.720Z,3.22
2023-01-09T14:55:48.019Z,4.15
2023-01-09T14:58:25.588Z,3.20
2023-01-09T15:01:03.061Z,3.53
2023-01-09T15:03:43.262Z,3.38
2023-01-09T15:06:24.512Z,3.33
2023-01-09T15:09:23.900Z,3.63
2023-01-09T15:11:53.292Z,2.97
2023-01-09T15:14:31.364Z,3.10
2023-01-09T15:17:00.136Z,3.25
2023-01-09T15:19:28.101Z,3.33
2023-01-09T15:22:04.664Z,3.40
2023-01-09T15:24:34.565Z,3.70
2023-01-09T15:27:29.329Z,4.10
2023-01-09T15:29:57.026Z,3.70
2023-01-09T15:32:24.395Z,3.22
2023-01-09T15:34:52.533Z,2.88
2023-01-09T15:37:40.577Z,2.97
2023-01-09T15:40:13.743Z,2.78
2023-01-09T15:42:58.072Z,3.33
2023-01-09T15:45:33.049Z,2.83
2023-01-09T15:48:25.828Z,2.90
2023-01-09T15:51:03.156Z,2.55
2023-01-09T15:53:30.719Z,2.05
2023-01-09T15:56:17.555Z,2.45
2023-01-09T15:58:52.694Z,1.75
2023-01-09T16:01:26.293Z,1.95
2023-01-09T16:03:56.674Z,2.67
2023-01-09T16:06:29.000Z,2.83
2023-01-09T16:08:58.981Z,3.03
2023-01-09T16:11:33.745Z,2.45
2023-01-09T16:14:27.438Z,2.60
2023-01-09T16:16:59.849Z,2.10
2023-01-09T16:19:47.320Z,2.30
2023-01-09T16:22:29.623Z,2.35
2023-01-09T16:25:02.182Z,2.63
2023-01-09T16:27:34.020Z,2.30
2023-01-09T16:30:02.983Z,2.58
2023-01-09T16:32:35.824Z,2.45
2023-01-09T16:35:14.457Z,2.97
2023-01-09T16:37:42.101Z,2.58
2023-01-09T16:40:18.396Z,2.50
2023-01-09T16:43:01.192Z,2.72
2023-01-09T16:45:34.031Z,2.60
2023-01-09T16:48:02.530Z,3.25
2023-01-09T16:50:29.937Z,3.10
2023-01-09T16:52:58.441Z,3.45
2023-01-09T16:55:25.892Z,3.63
2023-01-09T16:57:53.402Z,3.28
2023-01-09T17:00:21.719Z,3.20
2023-01-09T17:02:49.000Z,3.70
2023-01-09T17:05:16.417Z,3.58
2023-01-09T17:07:43.791Z,3.97
2023-01-09T17:10:21.002Z,4.00
2023-01-09T17:12:49.768Z,4.07
2023-01-09T17:15:19.934Z,3.78
2023-01-09T17:17:47.738Z,3.72
2023-01-09T17:20:18.779Z,3.40
2023-01-09T17:22:46.369Z,3.33
2023-01-09T17:25:33.816Z,4.13
2023-01-09T17:28:21.064Z,3.78
2023-01-09T17:30:48.767Z,3.60
2023-01-09T17:33:17.879Z,3.72
2023-01-09T17:35:45.537Z,3.50
2023-01-09T17:38:16.477Z,3.47
2023-01-09T17:40:44.416Z,4.00
2023-01-09T17:43:12.198Z,4.38
2023-01-09T17:45:43.782Z,3.90
2023-01-09T17:48:15.534Z,3.38
2023-01-09T17:50:43.580Z,4.47
2023-01-09T17:53:11.675Z,3.78
2023-01-09T17:55:39.930Z,3.33
2023-01-09T17:58:07.941Z,2.97
2023-01-09T18:00:41.968Z,3.35
2023-01-09T18:03:09.618Z,3.60
2023-01-09T18:05:39.088Z,3.30
2023-01-09T18:08:09.372Z,3.15
2023-01-09T18:10:37.560Z,3.50
2023-01-09T18:13:05.019Z,3.40
2023-01-09T18:15:32.663Z,4.25
2023-01-09T18:18:00.105Z,3.67
2023-01-09T18:20:27.663Z,3.97
2023-01-09T18:22:55.200Z,3.95
2023-01-09T18:25:23.342Z,3.47
2023-01-09T18:27:54.459Z,3.50
2023-01-09T18:30:21.994Z,3.75
2023-01-09T18:32:49.388Z,3.55
2023-01-09T18:35:17.744Z,3.60
2023-01-09T18:37:48.645Z,4.45
2023-01-09T18:40:16.108Z,4.60
2023-01-09T18:42:45.765Z,3.95
2023-01-09T18:45:13.058Z,4.45
2023-01-09T18:47:40.562Z,3.90
2023-01-09T18:50:08.483Z,4.03
2023-01-09T18:52:35.842Z,5.03
2023-01-09T18:55:03.350Z,4.85
2023-01-09T18:57:30.849Z,4.28
2023-01-09T18:59:58.195Z,5.13
2023-01-09T19:02:26.917Z,4.63
2023-01-09T19:04:54.393Z,4.55
2023-01-09T19:07:21.795Z,5.10
2023-01-09T19:09:49.472Z,4.55
2023-01-09T19:12:20.320Z,4.97
2023-01-09T19:14:47.851Z,4.72
2023-01-09T19:17:15.736Z,5.13
2023-01-09T19:19:43.398Z,4.53
2023-01-09T19:22:10.788Z,4.50
2023-01-09T19:24:38.335Z,4.03
2023-01-09T19:27:05.979Z,4.10
2023-01-09T19:29:36.425Z,4.30
2023-01-09T19:32:08.455Z,3.67
2023-01-09T19:34:36.295Z,3.58
2023-01-09T19:37:03.863Z,3.88
2023-01-09T19:39:32.408Z,3.95
2023-01-09T19:42:02.678Z,3.80
2023-01-09T19:44:32.717Z,3.53
2023-01-09T19:47:00.554Z,3.70
2023-01-09T19:49:28.121Z,3.88
2023-01-09T19:51:58.299Z,3.67
2023-01-09T19:54:25.735Z,3.33
2023-01-09T19:56:53.291Z,3.88
2023-01-09T19:59:20.764Z,3.22
2023-01-09T20:01:48.097Z,3.65
2023-01-09T20:04:16.008Z,3.75
2023-01-09T20:06:46.694Z,3.70
2023-01-09T20:09:18.028Z,3.47
2023-01-09T20:11:45.576Z,3.38
2023-01-09T20:14:14.475Z,2.97
2023-01-09T20:16:43.529Z,3.30
2023-01-09T20:19:14.074Z,3.35
2023-01-09T20:21:42.376Z,3.65
2023-01-09T20:24:16.316Z,3.88
2023-01-09T20:26:45.064Z,3.50
2023-01-09T20:29:13.005Z,2.95
2023-01-09T20:31:43.064Z,3.35
2023-01-09T20:34:14.729Z,3.50
2023-01-09T20:36:42.244Z,3.30
2023-01-09T20:39:13.972Z,4.28
2023-01-09T20:41:45.382Z,3.53
2023-01-09T20:44:20.619Z,3.50
2023-01-09T20:46:50.130Z,4.47
2023-01-09T20:49:21.669Z,3.38
2023-01-09T20:51:52.136Z,3.17
2023-01-09T20:54:21.782Z,3.15
2023-01-09T20:56:49.755Z,3.30
2023-01-09T20:59:20.379Z,3.63
2023-01-09T21:01:48.905Z,4.15
2023-01-09T21:04:18.732Z,3.33
2023-01-09T21:06:53.677Z,3.17
2023-01-09T21:09:21.827Z,2.67
2023-01-09T21:11:53.570Z,3.53
2023-01-09T21:14:21.733Z,3.40
2023-01-09T21:16:54.855Z,3.00
2023-01-09T21:19:23.676Z,3.60
2023-01-09T21:24:35.652Z,3.33
2023-01-09T21:27:09.936Z,3.50
2023-01-09T21:29:41.454Z,3.20
2023-01-09T21:32:09.153Z,4.03
2023-01-09T21:34:37.085Z,3.10
2023-01-09T21:37:05.991Z,3.17
2023-01-09T21:39:34.552Z,3.10
2023-01-09T21:42:21.237Z,3.20
2023-01-09T21:45:07.754Z,2.75
2023-01-09T21:47:35.678Z,3.33
2023-01-09T21:50:03.715Z,3.28
2023-01-09T21:52:31.105Z,3.65
2023-01-09T21:54:59.354Z,3.83
2023-01-09T21:57:26.927Z,4.70
2023-01-09T21:59:55.455Z,3.60
2023-01-09T22:02:24.873Z,3.38
2023-01-09T22:04:54.219Z,3.90
2023-01-09T22:07:23.773Z,4.18
2023-01-09T22:09:52.643Z,5.38
2023-01-09T22:12:26.986Z,3.72
2023-01-09T22:14:58.526Z,4.03
2023-01-09T22:20:24.617Z,3.65
2023-01-09T22:25:38.523Z,3.70
2023-01-09T22:28:10.321Z,3.78
2023-01-09T22:30:42.857Z,4.85
2023-01-09T22:33:11.762Z,3.65
2023-01-09T22:35:43.984Z,3.58
2023-01-09T22:38:12.253Z,3.13
2023-01-09T22:40:40.785Z,4.03
2023-01-09T22:43:09.150Z,4.53
2023-01-09T22:45:36.678Z,3.83
2023-01-09T22:48:04.297Z,3.83
2023-01-09T22:50:31.784Z,3.75
2023-01-09T22:52:59.274Z,4.10
2023-01-09T22:55:27.451Z,3.60
2023-01-09T22:57:55.014Z,3.50
2023-01-09T23:00:22.570Z,3.42
2023-01-09T23:02:50.158Z,4.28
2023-01-09T23:05:22.576Z,3.55
2023-01-09T23:07:50.819Z,3.08
2023-01-09T23:10:18.568Z,3.90
2023-01-09T23:12:48.562Z,4.07
2023-01-09T23:15:16.422Z,3.83
2023-01-09T23:17:43.900Z,4.07
2023-01-09T23:20:12.464Z,3.63
2023-01-09T23:22:39.887Z,4.30
2023-01-09T23:25:08.263Z,4.05
2023-01-09T23:27:35.715Z,3.35
2023-01-09T23:30:04.513Z,4.05
2023-01-09T23:32:31.941Z,3.42
2023-01-09T23:35:02.847Z,3.17
2023-01-09T23:37:30.441Z,3.83
2023-01-09T23:39:58.078Z,3.58
2023-01-09T23:42:44.848Z,3.65
2023-01-09T23:45:12.334Z,4.15
2023-01-09T23:47:40.092Z,4.35
2023-01-09T23:50:09.784Z,3.88
2023-01-09T23:52:37.360Z,3.92
2023-01-09T23:55:05.390Z,3.55
2023-01-09T23:57:33.532Z,4.25
